createdAt,value
2023-04-29T00:01:27.003Z,100.00
2023-04-29T00:03:58.790Z,100.00
2023-04-29T00:06:27.224Z,100.00
2023-04-29T00:08:53.936Z,100.00
2023-04-29T00:11:20.621Z,100.00
2023-04-29T00:13:51.563Z,100.00
2023-04-29T00:16:18.698Z,100.00
2023-04-29T00:18:45.306Z,100.00
2023-04-29T00:21:14.433Z,100.00
2023-04-29T00:23:41.084Z,100.00
2023-04-29T00:26:07.768Z,100.00
2023-04-29T00:28:34.434Z,100.00
2023-04-29T00:31:01.019Z,100.00
2023-04-29T00:33:27.594Z,100.00
2023-04-29T00:35:54.222Z,100.00
2023-04-29T00:38:25.306Z,100.00
2023-04-29T00:40:51.974Z,100.00
2023-04-29T00:43:18.741Z,100.00
2023-04-29T00:45:46.965Z,100.00
2023-04-29T00:48:15.256Z,100.00
2023-04-29T00:50:44.526Z,100.00
2023-04-29T00:53:14.924Z,100.00
2023-04-29T00:55:43.666Z,100.00
2023-04-29T00:58:19.018Z,100.00
2023-04-29T01:09:24.448Z,100.00
2023-04-29T01:12:26.775Z,100.00
2023-04-29T01:15:17.544Z,100.00
2023-04-29T01:17:58.718Z,100.00
2023-04-29T01:20:28.315Z,100.00
2023-04-29T01:22:57.089Z,100.00
2023-04-29T01:25:23.738Z,100.00
2023-04-29T01:28:12.434Z,100.00
2023-04-29T01:30:44.669Z,100.00
2023-04-29T01:33:20.237Z,100.00
2023-04-29T01:35:59.061Z,100.00
2023-04-29T01:38:45.044Z,100.00
2023-04-29T01:41:15.635Z,100.00
2023-04-29T01:43:48.086Z,100.00
2023-04-29T01:46:17.284Z,100.00
2023-04-29T01:48:44.258Z,100.00
2023-04-29T01:51:11.649Z,100.00
2023-04-29T01:53:40.446Z,100.00
2023-04-29T01:56:08.484Z,100.00
2023-04-29T01:58:37.340Z,100.00
2023-04-29T02:01:07.662Z,100.00
2023-04-29T02:03:34.596Z,100.00
2023-04-29T02:06:01.523Z,100.00
2023-04-29T02:08:29.996Z,100.00
2023-04-29T02:10:57.899Z,100.00
2023-04-29T02:13:26.266Z,100.00
2023-04-29T02:15:54.512Z,100.00
2023-04-29T02:18:21.352Z,100.00
2023-04-29T02:20:52.356Z,100.00
2023-04-29T02:23:18.840Z,100.00
2023-04-29T02:25:45.363Z,100.00
2023-04-29T02:28:12.330Z,100.00
2023-04-29T02:30:38.884Z,100.00
2023-04-29T02:33:08.767Z,100.00
2023-04-29T02:35:35.570Z,100.00
2023-04-29T02:38:02.273Z,100.00
2023-04-29T02:40:29.412Z,100.00
2023-04-29T02:42:57.767Z,100.00
2023-04-29T02:45:24.318Z,100.00
2023-04-29T02:47:50.786Z,100.00
2023-04-29T02:50:17.568Z,100.00
2023-04-29T02:52:44.273Z,100.00
2023-04-29T02:55:10.721Z,100.00
2023-04-29T02:57:39.770Z,100.00
2023-04-29T03:00:09.120Z,100.00
2023-04-29T03:02:36.076Z,100.00
2023-04-29T03:05:04.601Z,100.00
2023-04-29T03:07:32.128Z,100.00
2023-04-29T03:09:59.053Z,100.00
2023-04-29T03:12:25.850Z,100.00
2023-04-29T03:14:52.408Z,100.00
2023-04-29T03:17:18.980Z,100.00
2023-04-29T03:19:47.306Z,100.00
2023-04-29T03:22:14.031Z,100.00
2023-04-29T03:24:40.645Z,100.00
2023-04-29T03:27:09.455Z,100.00
2023-04-29T03:29:35.930Z,100.00
2023-04-29T03:32:04.680Z,100.00
2023-04-29T03:34:31.476Z,100.00
2023-04-29T03:36:57.971Z,100.00
2023-04-29T03:39:24.517Z,100.00
2023-04-29T03:41:57.248Z,100.00
2023-04-29T03:44:23.878Z,100.00
2023-04-29T03:46:50.412Z,100.00
2023-04-29T03:49:17.056Z,100.00
2023-04-29T03:51:45.468Z,100.00
2023-04-29T03:54:14.658Z,100.00
2023-04-29T03:56:43.580Z,100.00
2023-04-29T03:59:10.105Z,100.00
2023-04-29T04:01:36.795Z,100.00
2023-04-29T04:04:07.284Z,100.00
2023-04-29T04:06:33.975Z,100.00
2023-04-29T04:09:00.564Z,100.00
2023-04-29T04:11:28.848Z,100.00
2023-04-29T04:13:57.030Z,100.00
2023-04-29T04:16:23.561Z,100.00
2023-04-29T04:18:50.174Z,100.00
2023-04-29T04:21:16.704Z,100.00
2023-04-29T04:23:44.150Z,100.00
2023-04-29T04:26:17.343Z,100.00
2023-04-29T04:28:43.822Z,100.00
2023-04-29T04:31:10.379Z,100.00
2023-04-29T04:33:37.166Z,100.00
2023-04-29T04:36:06.021Z,100.00
2023-04-29T04:38:33.185Z,100.00
2023-04-29T04:41:01.711Z,100.00
2023-04-29T04:43:28.190Z,100.00
2023-04-29T04:45:57.514Z,100.00
2023-04-29T04:48:25.774Z,100.00
2023-04-29T04:50:52.261Z,100.00
2023-04-29T04:53:18.963Z,100.00
2023-04-29T04:55:45.770Z,100.00
2023-04-29T04:58:12.468Z,100.00
2023-04-29T05:00:44.236Z,100.00
2023-04-29T05:03:12.637Z,100.00
2023-04-29T05:05:39.372Z,100.00
2023-04-29T05:08:06.206Z,100.00
2023-04-29T05:10:36.648Z,100.00
2023-04-29T05:13:03.354Z,100.00
2023-04-29T05:15:29.872Z,100.00
2023-04-29T05:17:58.298Z,100.00
2023-04-29T05:20:24.864Z,100.00
2023-04-29T05:22:51.364Z,100.00
2023-04-29T05:25:19.561Z,100.00
2023-04-29T05:27:46.073Z,100.00
2023-04-29T05:30:15.931Z,100.00
2023-04-29T05:32:42.981Z,100.00
2023-04-29T05:35:09.804Z,100.00
2023-04-29T05:37:36.673Z,100.00
2023-04-29T05:40:04.360Z,100.00
2023-04-29T05:42:31.301Z,100.00
2023-04-29T05:44:57.768Z,100.00
2023-04-29T05:47:24.586Z,100.00
2023-04-29T05:49:51.568Z,100.00
2023-04-29T05:52:18.201Z,100.00
2023-04-29T05:54:44.688Z,100.00
2023-04-29T05:57:11.201Z,100.00
2023-04-29T05:59:37.709Z,100.00
2023-04-29T06:02:06.004Z,100.00
2023-04-29T06:04:32.583Z,100.00
2023-04-29T06:06:59.104Z,100.00
2023-04-29T06:09:27.866Z,100.00
2023-04-29T06:11:54.890Z,100.00
2023-04-29T06:14:21.725Z,100.00
2023-04-29T06:16:49.379Z,100.00
2023-04-29T06:19:15.948Z,100.00
2023-04-29T06:21:42.418Z,100.00
2023-04-29T06:24:09.181Z,100.00
2023-04-29T06:26:35.662Z,100.00
2023-04-29T06:29:02.474Z,100.00
2023-04-29T06:31:29.308Z,100.00
2023-04-29T06:33:55.879Z,100.00
2023-04-29T06:36:27.218Z,100.00
2023-04-29T06:38:53.747Z,100.00
2023-04-29T06:41:20.421Z,100.00
2023-04-29T06:43:50.462Z,100.00
2023-04-29T06:46:19.450Z,100.00
2023-04-29T06:48:49.328Z,100.00
2023-04-29T06:51:16.180Z,100.00
2023-04-29T06:53:42.860Z,100.00
2023-04-29T06:56:09.335Z,100.00
2023-04-29T06:58:35.776Z,100.00
2023-04-29T07:01:04.272Z,100.00
2023-04-29T07:03:31.336Z,100.00
2023-04-29T07:05:57.887Z,100.00
2023-04-29T07:08:24.667Z,100.00
2023-04-29T07:10:55.827Z,100.00
2023-04-29T07:13:25.136Z,100.00
2023-04-29T07:15:53.606Z,100.00
2023-04-29T07:18:20.123Z,100.00
2023-04-29T07:20:48.061Z,100.00
2023-04-29T07:23:15.025Z,100.00
2023-04-29T07:25:43.867Z,100.00
2023-04-29T07:28:10.542Z,100.00
2023-04-29T07:30:37.635Z,100.00
2023-04-29T07:33:04.600Z,100.00
2023-04-29T07:35:31.723Z,100.00
2023-04-29T07:38:02.724Z,100.00
2023-04-29T07:40:29.183Z,100.00
2023-04-29T07:42:55.683Z,100.00
2023-04-29T07:45:24.254Z,100.00
2023-04-29T07:47:50.788Z,100.00
2023-04-29T07:50:17.705Z,100.00
2023-04-29T07:52:44.291Z,100.00
2023-04-29T07:55:10.899Z,100.00
2023-04-29T07:57:37.441Z,100.00
2023-04-29T08:00:06.348Z,100.00
2023-04-29T08:02:33.579Z,100.00
2023-04-29T08:05:01.192Z,100.00
2023-04-29T08:07:28.273Z,100.00
2023-04-29T08:09:54.771Z,100.00
2023-04-29T08:12:21.328Z,100.00
2023-04-29T08:14:54.703Z,100.00
2023-04-29T08:17:21.409Z,100.00
2023-04-29T08:19:48.027Z,100.00
2023-04-29T08:22:21.188Z,100.00
2023-04-29T08:24:48.614Z,100.00
2023-04-29T08:27:15.553Z,100.00
2023-04-29T08:29:43.226Z,100.00
2023-04-29T08:32:09.862Z,100.00
2023-04-29T08:34:41.572Z,100.00
2023-04-29T08:37:08.301Z,100.00
2023-04-29T08:39:34.755Z,100.00
2023-04-29T08:42:08.488Z,100.00
2023-04-29T08:44:36.925Z,96.74
2023-04-29T08:47:06.292Z,100.00
2023-04-29T08:49:33.627Z,100.00
2023-04-29T08:52:01.029Z,100.00
2023-04-29T08:54:28.799Z,98.29
2023-04-29T08:56:56.617Z,99.95
2023-04-29T08:59:28.508Z,98.88
2023-04-29T09:01:56.303Z,97.51
2023-04-29T09:04:48.002Z,93.01
2023-04-29T09:07:15.829Z,96.24
2023-04-29T09:09:43.066Z,98.33
2023-04-29T09:12:09.789Z,98.03
2023-04-29T09:14:38.625Z,98.89
2023-04-29T09:17:05.175Z,100.00
2023-04-29T09:19:33.918Z,100.00
2023-04-29T09:22:02.406Z,100.00
2023-04-29T09:24:30.935Z,100.00
2023-04-29T09:27:02.444Z,96.90
2023-04-29T09:29:29.568Z,95.85
2023-04-29T09:31:58.750Z,94.77
2023-04-29T09:34:33.769Z,95.99
2023-04-29T09:37:00.266Z,97.81
2023-04-29T09:39:26.973Z,96.40
2023-04-29T09:41:53.650Z,96.96
2023-04-29T09:44:23.203Z,97.70
2023-04-29T09:47:11.163Z,96.62
2023-04-29T09:49:42.603Z,98.04
2023-04-29T09:52:11.674Z,98.07
2023-04-29T09:54:41.526Z,97.05
2023-04-29T09:57:10.238Z,96.83
2023-04-29T09:59:40.343Z,95.03
2023-04-29T10:02:18.715Z,95.52
2023-04-29T10:04:47.800Z,97.09
2023-04-29T10:07:16.828Z,96.00
2023-04-29T10:09:48.502Z,95.92
2023-04-29T10:12:18.015Z,94.80
2023-04-29T10:15:06.647Z,94.26
2023-04-29T10:17:41.059Z,93.05
2023-04-29T10:20:09.600Z,90.76
2023-04-29T10:22:44.527Z,89.59
2023-04-29T10:25:12.272Z,91.32
2023-04-29T10:27:43.021Z,91.16
2023-04-29T10:30:13.643Z,87.89
2023-04-29T10:32:51.226Z,88.42
2023-04-29T10:35:23.589Z,88.72
2023-04-29T10:37:54.586Z,88.90
2023-04-29T10:40:48.372Z,85.19
2023-04-29T10:43:15.838Z,87.52
2023-04-29T10:45:42.332Z,89.03
2023-04-29T10:48:10.339Z,88.33
2023-04-29T10:50:45.328Z,85.52
2023-04-29T10:53:11.828Z,85.41
2023-04-29T10:55:38.882Z,86.47
2023-04-29T10:58:06.083Z,85.42
2023-04-29T11:00:34.960Z,86.23
2023-04-29T11:03:05.229Z,83.61
2023-04-29T11:05:37.506Z,83.39
2023-04-29T11:08:24.433Z,79.47
2023-04-29T11:11:00.964Z,83.77
2023-04-29T11:13:30.766Z,83.84
2023-04-29T11:16:11.889Z,79.66
2023-04-29T11:19:07.230Z,78.65
2023-04-29T11:21:35.146Z,83.06
2023-04-29T11:24:03.309Z,79.97
2023-04-29T11:26:29.929Z,79.82
2023-04-29T11:28:58.497Z,79.14
2023-04-29T11:31:32.374Z,74.34
2023-04-29T11:34:02.419Z,78.72
2023-04-29T11:36:32.201Z,80.23
2023-04-29T11:39:00.755Z,78.67
2023-04-29T11:41:28.024Z,76.50
2023-04-29T11:43:59.640Z,75.06
2023-04-29T11:46:28.276Z,76.16
2023-04-29T11:48:54.985Z,76.41
2023-04-29T11:51:22.529Z,74.70
2023-04-29T11:53:49.095Z,75.38
2023-04-29T11:56:17.478Z,75.53
2023-04-29T11:58:45.902Z,69.99
2023-04-29T12:04:05.823Z,75.35
2023-04-29T12:06:32.623Z,72.62
2023-04-29T12:09:00.314Z,74.88
2023-04-29T12:11:29.407Z,73.13
2023-04-29T12:13:57.424Z,72.61
2023-04-29T12:16:24.407Z,72.10
2023-04-29T12:18:58.313Z,70.52
2023-04-29T12:21:25.078Z,70.12
2023-04-29T12:23:52.612Z,69.54
2023-04-29T12:26:21.343Z,69.55
2023-04-29T12:28:53.736Z,70.16
2023-04-29T12:31:21.261Z,71.04
2023-04-29T12:33:54.296Z,69.25
2023-04-29T12:36:20.850Z,68.63
2023-04-29T12:38:48.133Z,69.44
2023-04-29T12:41:19.359Z,66.29
2023-04-29T12:43:46.446Z,68.28
2023-04-29T12:46:13.826Z,69.00
2023-04-29T12:48:43.229Z,70.41
2023-04-29T12:51:10.764Z,67.17
2023-04-29T12:53:37.606Z,68.29
2023-04-29T12:56:07.525Z,67.40
2023-04-29T12:58:36.870Z,66.87
2023-04-29T13:01:03.453Z,66.50
2023-04-29T13:03:30.308Z,67.92
2023-04-29T13:05:59.130Z,68.11
2023-04-29T13:08:27.927Z,66.35
2023-04-29T13:10:56.209Z,66.17
2023-04-29T13:13:22.687Z,64.99
2023-04-29T13:15:49.384Z,65.81
2023-04-29T13:18:18.442Z,65.88
2023-04-29T13:20:44.962Z,65.19
2023-04-29T13:23:14.221Z,66.41
2023-04-29T13:25:42.588Z,63.95
2023-04-29T13:28:11.540Z,64.50
2023-04-29T13:30:38.058Z,59.82
2023-04-29T13:33:11.744Z,62.71
2023-04-29T13:35:41.615Z,61.83
2023-04-29T13:38:08.852Z,62.44
2023-04-29T13:40:39.322Z,63.27
2023-04-29T13:43:15.036Z,62.95
2023-04-29T13:45:47.822Z,63.68
2023-04-29T13:48:45.365Z,63.14
2023-04-29T13:54:04.915Z,63.02
2023-04-29T14:04:01.328Z,63.57
2023-04-29T14:06:30.555Z,63.10
2023-04-29T14:08:57.095Z,63.74
2023-04-29T14:11:23.657Z,63.29
2023-04-29T14:13:52.556Z,63.70
2023-04-29T14:16:21.345Z,64.03
2023-04-29T14:18:47.816Z,64.36
2023-04-29T14:21:15.016Z,64.65
2023-04-29T14:23:41.521Z,65.79
2023-04-29T14:26:26.581Z,65.04
2023-04-29T14:29:01.888Z,64.80
2023-04-29T14:31:30.650Z,64.95
2023-04-29T14:33:58.092Z,65.09
2023-04-29T14:36:28.568Z,64.43
2023-04-29T14:38:55.150Z,63.96
2023-04-29T14:41:22.035Z,63.83
2023-04-29T14:43:57.461Z,62.83
2023-04-29T14:46:25.403Z,63.18
2023-04-29T14:48:52.209Z,64.76
2023-04-29T14:51:20.484Z,64.06
2023-04-29T14:53:47.000Z,64.25
2023-04-29T14:56:13.562Z,64.90
2023-04-29T14:58:42.894Z,65.33
2023-04-29T15:01:09.720Z,64.82
2023-04-29T15:06:09.680Z,64.32
2023-04-29T15:08:36.162Z,63.16
2023-04-29T15:11:02.638Z,62.92
2023-04-29T15:13:30.204Z,62.81
2023-04-29T15:15:58.808Z,63.61
2023-04-29T15:18:26.448Z,63.51
2023-04-29T15:20:55.446Z,62.13
2023-04-29T15:23:21.922Z,61.96
2023-04-29T15:25:48.538Z,62.67
2023-04-29T15:28:25.347Z,63.63
2023-04-29T15:30:54.685Z,63.71
2023-04-29T15:33:21.275Z,63.65
2023-04-29T15:35:47.869Z,62.37
2023-04-29T15:38:14.368Z,63.36
2023-04-29T15:40:41.004Z,60.88
2023-04-29T15:43:07.557Z,63.21
2023-04-29T15:45:34.021Z,63.22
2023-04-29T15:48:00.877Z,63.71
2023-04-29T15:50:29.559Z,64.37
2023-04-29T15:52:58.772Z,62.95
2023-04-29T15:55:27.194Z,64.74
2023-04-29T15:57:53.788Z,65.84
2023-04-29T16:00:20.496Z,66.46
2023-04-29T16:02:47.091Z,66.22
2023-04-29T16:05:22.168Z,66.26
2023-04-29T16:07:48.957Z,66.16
2023-04-29T16:10:15.536Z,66.64
2023-04-29T16:12:42.936Z,66.73
2023-04-29T16:15:10.121Z,67.18
2023-04-29T16:17:36.918Z,67.48
2023-04-29T16:20:05.842Z,66.01
2023-04-29T16:22:32.552Z,65.98
2023-04-29T16:24:59.054Z,65.45
2023-04-29T16:27:27.473Z,65.66
2023-04-29T16:29:55.678Z,65.92
2023-04-29T16:32:22.608Z,66.11
2023-04-29T16:34:49.114Z,66.10
2023-04-29T16:37:15.692Z,66.88
2023-04-29T16:39:42.140Z,67.42
2023-04-29T16:42:13.571Z,66.94
2023-04-29T16:44:40.034Z,66.49
2023-04-29T16:47:06.518Z,67.09
2023-04-29T16:49:33.292Z,67.81
2023-04-29T16:51:59.739Z,68.19
2023-04-29T16:54:27.680Z,68.59
2023-04-29T16:56:58.792Z,69.19
2023-04-29T16:59:25.407Z,68.74
2023-04-29T17:01:53.675Z,69.86
2023-04-29T17:04:20.594Z,69.59
2023-04-29T17:06:47.469Z,70.67
2023-04-29T17:09:15.764Z,70.82
2023-04-29T17:11:44.249Z,71.16
2023-04-29T17:14:10.707Z,70.38
2023-04-29T17:16:37.392Z,71.44
2023-04-29T17:19:10.519Z,71.59
2023-04-29T17:21:37.171Z,71.52
2023-04-29T17:24:04.484Z,71.57
2023-04-29T17:26:33.343Z,69.56
2023-04-29T17:29:00.094Z,70.94
2023-04-29T17:31:33.825Z,71.79
2023-04-29T17:34:08.231Z,72.27
2023-04-29T17:36:34.772Z,73.18
2023-04-29T17:39:03.134Z,73.44
2023-04-29T17:41:34.025Z,73.15
2023-04-29T17:44:00.578Z,74.66
2023-04-29T17:46:27.179Z,75.57
2023-04-29T17:48:55.474Z,75.94
2023-04-29T17:51:23.938Z,76.61
2023-04-29T17:53:50.472Z,77.00
2023-04-29T17:56:17.225Z,77.39
2023-04-29T17:58:43.709Z,78.03
2023-04-29T18:01:10.300Z,78.96
2023-04-29T18:03:38.653Z,79.14
2023-04-29T18:06:05.567Z,79.30
2023-04-29T18:08:32.145Z,79.79
2023-04-29T18:10:58.702Z,79.29
2023-04-29T18:13:27.108Z,80.17
2023-04-29T18:15:54.316Z,80.08
2023-04-29T18:18:22.815Z,80.44
2023-04-29T18:20:49.337Z,81.03
2023-04-29T18:23:19.757Z,81.25
2023-04-29T18:25:46.551Z,81.49
2023-04-29T18:28:23.506Z,81.51
2023-04-29T18:30:52.274Z,82.51
2023-04-29T18:33:19.145Z,82.53
2023-04-29T18:35:46.115Z,82.22
2023-04-29T18:38:16.447Z,82.67
2023-04-29T18:40:43.929Z,83.05
2023-04-29T18:43:11.929Z,83.20
2023-04-29T18:45:41.180Z,83.62
2023-04-29T18:48:08.518Z,83.93
2023-04-29T18:50:35.095Z,84.19
2023-04-29T18:53:03.607Z,84.60
2023-04-29T18:55:30.668Z,84.14
2023-04-29T19:00:50.343Z,85.17
2023-04-29T19:03:17.574Z,85.52
2023-04-29T19:05:44.485Z,85.16
2023-04-29T19:08:11.182Z,85.71
2023-04-29T19:10:37.714Z,85.60
2023-04-29T19:13:04.177Z,86.26
2023-04-29T19:15:37.558Z,86.09
2023-04-29T19:18:04.976Z,86.45
2023-04-29T19:20:31.646Z,86.65
2023-04-29T19:22:58.146Z,87.21
2023-04-29T19:25:26.236Z,87.21
2023-04-29T19:27:56.526Z,87.64
2023-04-29T19:30:25.419Z,88.05
2023-04-29T19:32:51.981Z,88.12
2023-04-29T19:35:18.679Z,88.39
2023-04-29T19:37:47.473Z,88.73
2023-04-29T19:40:14.258Z,88.81
2023-04-29T19:42:41.019Z,89.06
2023-04-29T19:45:08.748Z,89.37
2023-04-29T19:47:36.285Z,89.27
2023-04-29T19:50:03.201Z,89.28
2023-04-29T19:52:38.080Z,88.91
2023-04-29T19:55:11.588Z,89.22
2023-04-29T19:57:38.825Z,89.74
2023-04-29T20:00:08.353Z,90.01
2023-04-29T20:02:35.175Z,89.95
2023-04-29T20:05:01.781Z,89.92
2023-04-29T20:07:34.853Z,89.79
2023-04-29T20:10:01.412Z,90.54
2023-04-29T20:12:27.902Z,90.64
2023-04-29T20:14:56.114Z,90.80
2023-04-29T20:17:22.587Z,91.29
2023-04-29T20:19:51.921Z,91.39
2023-04-29T20:22:20.371Z,91.26
2023-04-29T20:24:47.021Z,91.52
2023-04-29T20:27:16.501Z,91.59
2023-04-29T20:29:43.811Z,92.30
2023-04-29T20:32:10.756Z,92.56
2023-04-29T20:34:37.891Z,92.59
2023-04-29T20:37:06.183Z,92.45
2023-04-29T20:39:33.260Z,93.19
2023-04-29T20:42:00.491Z,93.47
2023-04-29T20:44:27.557Z,93.46
2023-04-29T20:46:57.631Z,93.39
2023-04-29T20:49:24.972Z,94.33
2023-04-29T20:51:51.473Z,94.96
2023-04-29T20:54:17.957Z,94.99
2023-04-29T20:56:44.469Z,95.32
2023-04-29T20:59:12.739Z,94.67
2023-04-29T21:01:39.230Z,94.77
2023-04-29T21:04:06.120Z,94.70
2023-04-29T21:06:33.683Z,95.59
2023-04-29T21:09:00.712Z,96.33
2023-04-29T21:11:27.149Z,95.80
2023-04-29T21:14:02.173Z,96.19
2023-04-29T21:16:28.637Z,96.20
2023-04-29T21:18:55.173Z,95.71
2023-04-29T21:21:23.238Z,96.46
2023-04-29T21:23:49.793Z,96.15
2023-04-29T21:26:19.658Z,97.29
2023-04-29T21:28:48.138Z,97.90
2023-04-29T21:31:17.430Z,98.11
2023-04-29T21:33:44.854Z,98.44
2023-04-29T21:36:18.067Z,97.30
2023-04-29T21:38:44.712Z,98.10
2023-04-29T21:41:21.473Z,98.05
2023-04-29T21:43:48.690Z,98.38
2023-04-29T21:46:16.392Z,98.45
2023-04-29T21:48:43.357Z,98.93
2023-04-29T21:51:09.972Z,99.71
2023-04-29T21:53:38.085Z,98.89
2023-04-29T21:56:06.183Z,98.63
2023-04-29T21:58:35.017Z,98.83
2023-04-29T22:01:03.984Z,99.58
2023-04-29T22:03:36.847Z,99.14
2023-04-29T22:06:03.829Z,100.00
2023-04-29T22:08:30.391Z,100.00
2023-04-29T22:10:59.226Z,100.00
2023-04-29T22:13:26.138Z,100.00
2023-04-29T22:15:52.668Z,100.00
2023-04-29T22:18:21.498Z,100.00
2023-04-29T22:20:50.393Z,100.00
2023-04-29T22:23:16.948Z,100.00
2023-04-29T22:25:43.646Z,100.00
2023-04-29T22:28:10.247Z,100.00
2023-04-29T22:30:38.945Z,100.00
2023-04-29T22:33:05.468Z,100.00
2023-04-29T22:35:33.722Z,100.00
2023-04-29T22:38:00.289Z,100.00
2023-04-29T22:40:27.085Z,100.00
2023-04-29T22:42:55.294Z,100.00
2023-04-29T22:45:21.816Z,100.00
2023-04-29T22:47:48.372Z,100.00
2023-04-29T22:50:17.430Z,100.00
2023-04-29T22:52:43.894Z,100.00
2023-04-29T22:55:10.555Z,100.00
2023-04-29T22:57:37.170Z,100.00
2023-04-29T23:00:03.944Z,100.00
2023-04-29T23:02:35.113Z,100.00
2023-04-29T23:05:01.792Z,100.00
2023-04-29T23:07:28.829Z,100.00
2023-04-29T23:09:55.586Z,100.00
2023-04-29T23:12:31.150Z,100.00
2023-04-29T23:14:57.652Z,100.00
2023-04-29T23:17:24.399Z,100.00
2023-04-29T23:19:51.230Z,100.00
2023-04-29T23:22:18.009Z,100.00
2023-04-29T23:24:44.529Z,100.00
2023-04-29T23:27:13.165Z,100.00
2023-04-29T23:29:41.530Z,100.00
2023-04-29T23:32:08.184Z,100.00
2023-04-29T23:34:39.260Z,100.00
2023-04-29T23:37:05.741Z,100.00
2023-04-29T23:39:32.258Z,100.00
2023-04-29T23:42:00.417Z,100.00
2023-04-29T23:44:28.787Z,100.00
2023-04-29T23:46:55.307Z,100.00
2023-04-29T23:49:23.560Z,100.00
2023-04-29T23:51:51.968Z,100.00
2023-04-29T23:54:18.793Z,100.00
2023-04-29T23:56:47.632Z,100.00
2023-04-29T23:59:14.367Z,100.00
